Time;durP1;ratioP1;P1;durP2;ratioP2;P2;SDS_P1;SDS_P2;PMS_P1;PMS_P2;Temp;Humidity;BMP_temperature;BMP_pressure;BME280_temperature;BME280_humidity;BME280_pressure;Samples;Min_cycle;Max_cycle;Signal;HPM_P1;HPM_P2
2021/12/21 00:01:55;;;;;;;12.32;6.55;;;;;;;;;;5094231;28;20028;-60
2021/12/21 00:04:20;;;;;;;13.63;6.18;;;;;;;;;;5094436;28;20055;-60
2021/12/21 00:06:45;;;;;;;16.92;6.80;;;;;;;;;;5093737;28;20064;-60
2021/12/21 00:09:11;;;;;;;11.27;6.32;;;;;;;;;;5093328;28;20059;-61
2021/12/21 00:11:36;;;;;;;13.90;6.28;;;;;;;;;;5093776;28;20051;-61
2021/12/21 00:21:53;;;;;;;11.05;5.68;;;;;;;;;;5093751;28;20089;-61
2021/12/21 00:24:22;;;;;;;10.40;5.25;;;;;;;;;;5093820;28;20499;-61
2021/12/21 00:26:47;;;;;;;9.63;5.50;;;;;;;;;;5094164;28;20076;-61
2021/12/21 00:29:13;;;;;;;11.18;6.22;;;;;;;;;;5093125;28;20028;-62
2021/12/21 00:31:38;;;;;;;14.95;6.68;;;;;;;;;;5091883;28;20101;-62
2021/12/21 00:34:05;;;;;;;8.45;5.25;;;;;;;;;;5093528;28;20036;-62
2021/12/21 00:36:31;;;;;;;8.65;4.78;;;;;;;;;;5093490;28;20032;-62
2021/12/21 00:38:57;;;;;;;9.32;4.97;;;;;;;;;;5093808;28;20028;-62
2021/12/21 00:41:24;;;;;;;12.73;6.00;;;;;;;;;;5093116;28;20036;-62
2021/12/21 00:43:50;;;;;;;9.57;4.68;;;;;;;;;;5093269;28;20024;-60
2021/12/21 00:46:17;;;;;;;11.10;5.70;;;;;;;;;;5093503;28;20093;-61
2021/12/21 00:48:50;;;;;;;10.00;5.32;;;;;;;;;;5093098;28;20455;-61
2021/12/21 00:51:16;;;;;;;8.93;5.60;;;;;;;;;;5093171;28;20496;-61
2021/12/21 00:53:41;;;;;;;11.75;6.00;;;;;;;;;;5093912;28;20028;-61
2021/12/21 00:56:07;;;;;;;9.90;5.20;;;;;;;;;;5093128;28;20032;-61
2021/12/21 00:58:32;;;;;;;10.65;5.60;;;;;;;;;;5092659;28;20040;-61
2021/12/21 01:01:02;;;;;;;12.02;4.95;;;;;;;;;;5092558;28;20032;-61
2021/12/21 01:03:27;;;;;;;9.25;5.47;;;;;;;;;;5092901;28;20050;-61
2021/12/21 01:06:00;;;;;;;9.95;4.57;;;;;;;;;;5093404;28;20036;-61
2021/12/21 01:08:29;;;;;;;12.18;5.45;;;;;;;;;;5092174;28;20032;-61
2021/12/21 01:18:39;;;;;;;12.32;6.03;;;;;;;;;;5010482;28;20038;-61
2021/12/21 01:26:29;;;;;;;10.63;4.82;;;;;;;;;;5009986;28;20071;-63
2021/12/21 01:31:56;;;;;;;11.45;5.68;;;;;;;;;;4990631;28;20057;-60
2021/12/21 01:34:54;;;;;;;9.40;5.00;;;;;;;;;;4990676;28;20034;-60
2021/12/21 01:37:18;;;;;;;10.73;5.38;;;;;;;;;;4990774;28;20533;-62
2021/12/21 01:40:00;;;;;;;12.20;6.30;;;;;;;;;;4990553;28;20138;-60
2021/12/21 01:50:37;;;;;;;11.50;5.07;;;;;;;;;;4990708;28;20066;-60
2021/12/21 01:53:03;;;;;;;8.85;4.72;;;;;;;;;;4990966;28;20022;-60
2021/12/21 01:55:28;;;;;;;10.23;5.07;;;;;;;;;;5007338;28;20052;-60
2021/12/21 01:57:53;;;;;;;11.00;5.72;;;;;;;;;;5029750;28;20040;-61
2021/12/21 02:00:19;;;;;;;12.95;5.40;;;;;;;;;;5029707;28;20038;-61
2021/12/21 02:02:44;;;;;;;10.90;4.80;;;;;;;;;;5030005;28;20481;-61
2021/12/21 02:05:09;;;;;;;7.80;4.93;;;;;;;;;;5030006;28;20038;-63
2021/12/21 02:07:35;;;;;;;8.52;5.13;;;;;;;;;;5030661;28;20049;-60
2021/12/21 02:10:00;;;;;;;8.52;4.32;;;;;;;;;;5091734;28;20036;-62
2021/12/21 02:12:25;;;;;;;12.18;5.07;;;;;;;;;;5091895;28;20043;-60
2021/12/21 02:14:59;;;;;;;9.25;5.35;;;;;;;;;;5092985;28;20036;-61
2021/12/21 02:22:44;;;;;;;9.18;5.15;;;;;;;;;;5092036;28;20111;-60
2021/12/21 02:30:44;;;;;;;9.80;4.93;;;;;;;;;;5069394;28;20043;-61
2021/12/21 02:33:09;;;;;;;10.90;4.78;;;;;;;;;;5069446;28;20017;-61
2021/12/21 02:35:35;;;;;;;9.93;4.88;;;;;;;;;;5069921;28;20484;-61
2021/12/21 02:38:02;;;;;;;8.07;4.53;;;;;;;;;;5070844;28;20369;-61
2021/12/21 02:40:27;;;;;;;10.20;5.25;;;;;;;;;;5089745;28;20048;-61
2021/12/21 02:42:53;;;;;;;9.10;4.55;;;;;;;;;;5093314;28;20056;-61
2021/12/21 02:45:18;;;;;;;12.77;5.72;;;;;;;;;;5093403;28;20180;-61
2021/12/21 02:47:43;;;;;;;10.23;5.38;;;;;;;;;;5094186;28;20028;-61
2021/12/21 02:50:09;;;;;;;9.10;4.88;;;;;;;;;;5092988;28;20077;-60
2021/12/21 02:52:34;;;;;;;11.15;5.43;;;;;;;;;;5093167;28;20032;-61
2021/12/21 02:55:00;;;;;;;11.75;4.85;;;;;;;;;;5093133;28;20036;-61
2021/12/21 02:57:25;;;;;;;8.77;4.55;;;;;;;;;;5091108;28;20036;-61
2021/12/21 02:59:50;;;;;;;9.45;4.32;;;;;;;;;;5073199;28;20048;-62
2021/12/21 03:02:16;;;;;;;8.82;4.50;;;;;;;;;;5072465;28;20033;-63
2021/12/21 03:04:42;;;;;;;9.88;5.00;;;;;;;;;;5074752;28;20419;-63
2021/12/21 03:07:35;;;;;;;10.82;4.82;;;;;;;;;;5089153;28;20391;-63
2021/12/21 03:09:57;;;;;;;11.75;5.18;;;;;;;;;;5094839;28;20043;-62
2021/12/21 03:14:49;;;;;;;7.53;4.35;;;;;;;;;;5095731;28;20036;-62
2021/12/21 03:17:14;;;;;;;7.63;4.63;;;;;;;;;;5094741;28;20029;-62
2021/12/21 03:19:40;;;;;;;9.85;4.47;;;;;;;;;;5094770;28;20058;-62
2021/12/21 03:22:06;;;;;;;11.73;5.10;;;;;;;;;;5094681;28;20028;-61
2021/12/21 03:24:32;;;;;;;8.60;4.82;;;;;;;;;;5094810;28;20020;-62
2021/12/21 03:26:57;;;;;;;8.40;5.07;;;;;;;;;;5095177;28;20048;-62
2021/12/21 03:29:22;;;;;;;8.77;4.03;;;;;;;;;;5094481;28;20552;-63
2021/12/21 03:31:48;;;;;;;12.57;4.93;;;;;;;;;;5094462;28;20028;-61
2021/12/21 03:34:13;;;;;;;9.60;4.38;;;;;;;;;;5094716;28;20032;-64
2021/12/21 03:36:40;;;;;;;15.88;5.07;;;;;;;;;;5094616;28;20487;-61
2021/12/21 03:39:08;;;;;;;9.20;4.95;;;;;;;;;;5095231;28;20024;-61
2021/12/21 03:41:34;;;;;;;7.57;4.35;;;;;;;;;;5094628;28;20044;-61
2021/12/21 03:44:01;;;;;;;8.88;4.47;;;;;;;;;;5094722;28;20044;-61
2021/12/21 03:46:32;;;;;;;11.38;5.07;;;;;;;;;;5094546;28;20400;-61
2021/12/21 03:48:57;;;;;;;7.50;4.35;;;;;;;;;;5093936;28;20035;-61
2021/12/21 03:51:22;;;;;;;9.57;4.18;;;;;;;;;;5093398;28;20032;-61
2021/12/21 03:53:48;;;;;;;8.52;4.40;;;;;;;;;;5094386;28;20091;-62
2021/12/21 03:58:48;;;;;;;7.78;4.78;;;;;;;;;;5094324;28;20040;-61
2021/12/21 04:01:14;;;;;;;10.82;5.32;;;;;;;;;;5093725;28;20036;-62
2021/12/21 04:03:39;;;;;;;8.88;4.50;;;;;;;;;;5092292;28;20526;-62
2021/12/21 04:06:05;;;;;;;9.65;4.53;;;;;;;;;;5094285;28;20024;-62
2021/12/21 04:08:31;;;;;;;6.40;4.07;;;;;;;;;;5092439;28;20611;-63
2021/12/21 04:10:56;;;;;;;8.00;3.83;;;;;;;;;;5093667;28;20063;-61
2021/12/21 04:13:21;;;;;;;7.03;3.78;;;;;;;;;;5093061;28;20107;-61
2021/12/21 04:15:50;;;;;;;7.20;3.75;;;;;;;;;;5092798;28;20039;-61
2021/12/21 04:18:18;;;;;;;8.50;4.32;;;;;;;;;;5093793;28;20404;-61
2021/12/21 04:20:44;;;;;;;8.25;4.10;;;;;;;;;;5094043;28;20020;-61
2021/12/21 04:23:09;;;;;;;6.47;3.88;;;;;;;;;;5093465;28;20515;-61
2021/12/21 04:25:34;;;;;;;8.70;4.05;;;;;;;;;;5093429;28;20047;-61
2021/12/21 04:28:00;;;;;;;7.47;3.88;;;;;;;;;;5093637;28;20048;-61
2021/12/21 04:30:25;;;;;;;5.95;3.55;;;;;;;;;;5093366;28;20441;-61
2021/12/21 04:32:51;;;;;;;7.15;4.05;;;;;;;;;;5077551;28;20066;-61
2021/12/21 04:35:19;;;;;;;9.93;4.18;;;;;;;;;;5073058;28;20116;-61
2021/12/21 04:37:53;;;;;;;9.05;4.15;;;;;;;;;;5073262;28;20032;-62
2021/12/21 04:40:22;;;;;;;7.07;4.03;;;;;;;;;;5073229;28;20150;-62
2021/12/21 04:42:47;;;;;;;5.47;4.05;;;;;;;;;;5073082;28;20492;-62
2021/12/21 04:45:12;;;;;;;7.40;4.20;;;;;;;;;;5073289;28;20028;-62
2021/12/21 04:47:37;;;;;;;7.25;3.60;;;;;;;;;;5086797;28;20040;-63
2021/12/21 04:50:03;;;;;;;9.80;4.13;;;;;;;;;;5093103;28;20024;-62
2021/12/21 04:52:28;;;;;;;6.47;3.83;;;;;;;;;;5092925;28;20025;-62
2021/12/21 04:54:55;;;;;;;6.10;3.78;;;;;;;;;;5097894;28;20074;-62
2021/12/21 04:57:20;;;;;;;6.70;3.72;;;;;;;;;;5113314;28;20034;-62
2021/12/21 04:59:45;;;;;;;5.65;3.53;;;;;;;;;;5113749;28;20027;-62
2021/12/21 05:02:11;;;;;;;7.90;3.97;;;;;;;;;;5097741;28;20089;-62
2021/12/21 05:04:38;;;;;;;6.13;3.80;;;;;;;;;;5092582;28;20024;-62
2021/12/21 05:07:04;;;;;;;8.80;3.75;;;;;;;;;;5106368;28;20073;-62
2021/12/21 05:09:37;;;;;;;5.40;3.50;;;;;;;;;;5103326;28;20032;-62
2021/12/21 05:12:05;;;;;;;7.20;3.58;;;;;;;;;;5092645;28;20044;-62
2021/12/21 05:14:30;;;;;;;6.93;3.38;;;;;;;;;;5092172;28;20036;-63
2021/12/21 05:16:56;;;;;;;5.88;3.08;;;;;;;;;;5092024;28;20020;-62
2021/12/21 05:19:21;;;;;;;6.45;2.70;;;;;;;;;;5092837;28;20492;-62
2021/12/21 05:21:47;;;;;;;6.60;3.35;;;;;;;;;;5092123;28;20032;-62
2021/12/21 05:24:12;;;;;;;4.22;2.90;;;;;;;;;;5092348;28;20042;-62
2021/12/21 05:26:37;;;;;;;6.03;3.17;;;;;;;;;;5092954;28;20048;-63
2021/12/21 05:29:03;;;;;;;7.72;4.90;;;;;;;;;;5077234;28;20027;-62
2021/12/21 05:31:29;;;;;;;4.30;2.88;;;;;;;;;;5072417;28;20029;-62
2021/12/21 05:33:54;;;;;;;8.75;3.25;;;;;;;;;;5072148;28;20029;-62
2021/12/21 05:36:20;;;;;;;5.25;3.53;;;;;;;;;;5072758;28;20046;-59
2021/12/21 05:38:50;;;;;;;5.75;3.22;;;;;;;;;;5073040;28;20025;-61
2021/12/21 05:41:23;;;;;;;6.72;3.97;;;;;;;;;;5072071;28;20473;-61
2021/12/21 05:43:48;;;;;;;4.15;2.72;;;;;;;;;;5085653;28;20033;-60
2021/12/21 05:46:14;;;;;;;7.88;3.08;;;;;;;;;;5092323;28;20032;-60
2021/12/21 05:48:39;;;;;;;5.45;3.22;;;;;;;;;;5092770;28;20043;-60
2021/12/21 05:51:04;;;;;;;5.88;3.28;;;;;;;;;;5092905;28;20066;-59
2021/12/21 05:53:29;;;;;;;4.55;2.83;;;;;;;;;;5107800;28;20105;-60
2021/12/21 05:55:54;;;;;;;6.65;3.55;;;;;;;;;;5106136;28;20036;-59
2021/12/21 05:58:20;;;;;;;7.05;3.70;;;;;;;;;;5112623;28;20032;-59
2021/12/21 06:00:45;;;;;;;5.80;3.00;;;;;;;;;;5128088;28;20036;-61
2021/12/21 06:03:10;;;;;;;6.22;2.88;;;;;;;;;;5112417;28;20020;-59
2021/12/21 06:05:35;;;;;;;6.50;2.83;;;;;;;;;;5111535;28;20088;-59
2021/12/21 06:08:03;;;;;;;5.72;2.47;;;;;;;;;;5092391;28;20032;-59
2021/12/21 06:10:34;;;;;;;4.63;2.83;;;;;;;;;;5092155;28;20035;-60
2021/12/21 06:16:22;;;;;;;4.68;2.60;;;;;;;;;;5096141;28;20448;-59
2021/12/21 06:26:48;;;;;;;;;;;;;;;;;;5099279;28;20040;-59
2021/12/21 06:29:14;;;;;;;4.72;2.20;;;;;;;;;;5105124;28;19912;-59
2021/12/21 06:31:40;;;;;;;4.97;3.20;;;;;;;;;;5105372;28;20067;-59
2021/12/21 06:34:05;;;;;;;4.65;2.42;;;;;;;;;;5106206;28;20032;-59
2021/12/21 06:36:30;;;;;;;5.10;2.10;;;;;;;;;;5104498;28;20028;-59
2021/12/21 06:38:56;;;;;;;4.65;2.15;;;;;;;;;;5106110;28;20035;-59
2021/12/21 06:41:21;;;;;;;3.78;2.40;;;;;;;;;;5105589;28;20032;-60
2021/12/21 06:43:46;;;;;;;4.38;2.38;;;;;;;;;;5103965;28;20056;-60
2021/12/21 06:51:30;;;;;;;3.47;2.17;;;;;;;;;;5095650;28;20766;-60
2021/12/21 06:53:56;;;;;;;6.70;2.88;;;;;;;;;;5100174;28;20016;-60
2021/12/21 06:56:22;;;;;;;4.22;2.10;;;;;;;;;;5095412;28;20074;-60
2021/12/21 06:58:47;;;;;;;5.85;2.47;;;;;;;;;;5095622;28;20472;-60
2021/12/21 07:01:15;;;;;;;5.95;2.90;;;;;;;;;;5095427;28;20101;-60
2021/12/21 07:03:41;;;;;;;6.65;3.28;;;;;;;;;;5095673;28;20040;-60
2021/12/21 07:06:07;;;;;;;5.72;2.63;;;;;;;;;;5095763;28;20028;-60
2021/12/21 07:08:42;;;;;;;4.70;2.20;;;;;;;;;;5093174;28;20043;-61
2021/12/21 07:11:16;;;;;;;3.33;2.38;;;;;;;;;;5107125;28;20023;-60
2021/12/21 07:19:10;;;;;;;5.50;2.65;;;;;;;;;;5087316;28;20494;-62
2021/12/21 07:21:35;;;;;;;4.20;2.13;;;;;;;;;;5103892;28;20028;-61
2021/12/21 07:24:02;;;;;;;4.85;2.80;;;;;;;;;;5105129;28;20456;-62
2021/12/21 07:26:28;;;;;;;3.85;2.00;;;;;;;;;;5100766;28;20033;-62
2021/12/21 07:28:53;;;;;;;4.47;2.58;;;;;;;;;;5090622;28;21097;-61
2021/12/21 07:31:18;;;;;;;5.10;2.78;;;;;;;;;;5095525;28;20076;-62
2021/12/21 07:33:43;;;;;;;4.40;2.33;;;;;;;;;;5098881;28;20043;-62
2021/12/21 07:36:09;;;;;;;3.80;2.33;;;;;;;;;;5099470;28;20115;-61
2021/12/21 07:38:34;;;;;;;4.95;2.10;;;;;;;;;;5101146;28;20081;-61
2021/12/21 07:41:00;;;;;;;4.50;2.72;;;;;;;;;;5099564;28;20055;-62
2021/12/21 07:43:25;;;;;;;7.70;2.90;;;;;;;;;;5101009;28;20106;-62
2021/12/21 07:45:51;;;;;;;4.63;2.50;;;;;;;;;;5106549;28;20132;-62
2021/12/21 07:48:16;;;;;;;6.75;2.85;;;;;;;;;;5111187;28;20015;-61
2021/12/21 07:50:41;;;;;;;6.10;2.40;;;;;;;;;;5112374;28;20019;-62
2021/12/21 07:53:07;;;;;;;5.03;2.78;;;;;;;;;;5092007;28;20042;-61
2021/12/21 07:55:32;;;;;;;4.07;2.28;;;;;;;;;;5100463;28;20035;-61
2021/12/21 07:57:58;;;;;;;4.70;2.50;;;;;;;;;;5100254;28;20020;-61
2021/12/21 08:00:23;;;;;;;4.00;2.33;;;;;;;;;;5099948;28;20028;-61
2021/12/21 08:02:49;;;;;;;5.40;2.65;;;;;;;;;;5101229;28;20035;-61
2021/12/21 08:05:14;;;;;;;4.18;2.35;;;;;;;;;;5082263;28;20039;-62
2021/12/21 08:07:48;;;;;;;5.63;3.28;;;;;;;;;;5099083;28;20039;-62
2021/12/21 08:10:28;;;;;;;4.95;2.85;;;;;;;;;;5101273;28;20105;-62
2021/12/21 08:12:54;;;;;;;4.95;2.85;;;;;;;;;;5100593;28;20439;-62
2021/12/21 08:15:19;;;;;;;5.65;2.70;;;;;;;;;;5099001;28;20028;-62
2021/12/21 08:17:44;;;;;;;4.95;2.30;;;;;;;;;;5101197;28;20000;-62
2021/12/21 08:20:10;;;;;;;7.78;3.28;;;;;;;;;;5100511;28;20031;-62
2021/12/21 08:22:35;;;;;;;4.97;3.15;;;;;;;;;;5098308;28;20016;-62
2021/12/21 08:25:00;;;;;;;6.32;3.03;;;;;;;;;;5090126;28;20130;-62
2021/12/21 08:27:25;;;;;;;5.22;2.75;;;;;;;;;;5090001;28;20031;-62
2021/12/21 08:29:51;;;;;;;4.63;2.78;;;;;;;;;;5107165;28;20066;-62
2021/12/21 08:32:16;;;;;;;5.60;2.90;;;;;;;;;;5097271;28;20059;-62
2021/12/21 08:34:42;;;;;;;5.90;3.20;;;;;;;;;;5100020;28;20027;-62
2021/12/21 08:37:07;;;;;;;6.28;3.25;;;;;;;;;;5098399;28;20029;-62
2021/12/21 08:39:38;;;;;;;5.75;2.45;;;;;;;;;;5101300;28;20027;-62
2021/12/21 08:42:04;;;;;;;4.85;2.65;;;;;;;;;;5100928;28;20399;-61
2021/12/21 08:44:30;;;;;;;5.50;2.72;;;;;;;;;;5097871;28;20032;-62
2021/12/21 08:46:57;;;;;;;4.68;2.67;;;;;;;;;;5100190;28;20432;-62
2021/12/21 08:49:23;;;;;;;5.38;3.00;;;;;;;;;;5092776;28;20392;-60
2021/12/21 08:51:48;;;;;;;4.03;2.10;;;;;;;;;;5091004;28;20027;-62
2021/12/21 08:54:13;;;;;;;4.00;2.50;;;;;;;;;;5093883;28;20510;-63
2021/12/21 08:56:39;;;;;;;3.55;2.35;;;;;;;;;;5094851;28;20036;-65
2021/12/21 08:59:04;;;;;;;4.20;2.10;;;;;;;;;;5094985;28;20032;-65
2021/12/21 09:01:30;;;;;;;4.35;2.65;;;;;;;;;;5096450;28;20572;-72
2021/12/21 09:03:57;;;;;;;4.63;2.65;;;;;;;;;;5096826;28;20113;-73
2021/12/21 09:06:23;;;;;;;4.75;2.75;;;;;;;;;;5099956;28;20031;-68
2021/12/21 09:08:48;;;;;;;4.38;2.63;;;;;;;;;;5099818;28;20012;-63
2021/12/21 09:11:14;;;;;;;6.53;2.83;;;;;;;;;;5097838;28;20036;-65
2021/12/21 09:13:39;;;;;;;5.82;3.15;;;;;;;;;;5099106;28;20087;-63
2021/12/21 09:16:04;;;;;;;5.57;2.80;;;;;;;;;;5080380;28;20032;-64
2021/12/21 09:18:30;;;;;;;5.78;3.22;;;;;;;;;;5100073;28;20425;-68
2021/12/21 09:20:55;;;;;;;4.30;3.15;;;;;;;;;;5093381;28;20024;-67
2021/12/21 09:23:21;;;;;;;7.00;4.40;;;;;;;;;;5088353;28;20290;-67
2021/12/21 09:25:46;;;;;;;4.80;3.13;;;;;;;;;;5088875;28;20107;-68
2021/12/21 09:28:11;;;;;;;6.40;3.15;;;;;;;;;;5087654;28;20039;-66
2021/12/21 09:30:37;;;;;;;5.80;3.78;;;;;;;;;;5089134;28;20039;-65
2021/12/21 09:33:03;;;;;;;5.07;3.53;;;;;;;;;;5089371;28;20047;-64
2021/12/21 09:35:28;;;;;;;3.78;2.90;;;;;;;;;;5088361;28;20020;-66
2021/12/21 09:37:54;;;;;;;7.82;3.65;;;;;;;;;;5085534;28;20131;-65
2021/12/21 09:40:25;;;;;;;6.80;3.25;;;;;;;;;;5085627;28;20127;-66
2021/12/21 09:42:51;;;;;;;8.57;4.30;;;;;;;;;;5085937;28;20028;-67
2021/12/21 09:45:16;;;;;;;4.55;3.60;;;;;;;;;;5092064;28;20026;-64
2021/12/21 09:47:42;;;;;;;5.78;3.22;;;;;;;;;;5087355;28;20023;-63
2021/12/21 09:50:08;;;;;;;9.75;3.00;;;;;;;;;;5089876;28;20031;-64
2021/12/21 09:52:34;;;;;;;6.55;3.70;;;;;;;;;;5076995;28;20382;-65
2021/12/21 09:55:01;;;;;;;7.03;4.80;;;;;;;;;;5097779;28;20447;-70
2021/12/21 09:57:26;;;;;;;5.53;3.83;;;;;;;;;;5094534;28;20814;-64
2021/12/21 09:59:52;;;;;;;7.00;3.63;;;;;;;;;;5101272;28;20055;-63
2021/12/21 10:02:20;;;;;;;6.60;3.20;;;;;;;;;;5102486;28;20055;-69
2021/12/21 10:04:47;;;;;;;7.57;3.45;;;;;;;;;;5099064;28;20032;-63
2021/12/21 10:07:13;;;;;;;14.60;3.92;;;;;;;;;;5099151;28;20106;-63
2021/12/21 10:09:43;;;;;;;8.07;3.35;;;;;;;;;;5105114;28;20473;-66
2021/12/21 10:12:08;;;;;;;6.47;3.87;;;;;;;;;;5103928;28;20043;-68
2021/12/21 10:14:33;;;;;;;6.93;3.80;;;;;;;;;;5103760;28;20020;-67
2021/12/21 10:17:06;;;;;;;10.88;4.38;;;;;;;;;;5104551;28;20039;-67
2021/12/21 10:19:31;;;;;;;11.85;3.70;;;;;;;;;;5100784;28;20043;-65
2021/12/21 10:22:06;;;;;;;10.27;4.15;;;;;;;;;;5101310;28;20028;-67
2021/12/21 10:24:31;;;;;;;5.80;3.92;;;;;;;;;;5078907;28;20032;-66
2021/12/21 10:27:07;;;;;;;9.35;4.05;;;;;;;;;;5084006;28;20073;-67
2021/12/21 10:29:43;;;;;;;6.43;3.90;;;;;;;;;;5098199;28;20042;-61
2021/12/21 10:32:16;;;;;;;4.53;3.30;;;;;;;;;;5103097;28;20032;-60
2021/12/21 10:34:48;;;;;;;7.78;3.85;;;;;;;;;;5103708;28;20101;-60
2021/12/21 10:37:23;;;;;;;6.43;3.58;;;;;;;;;;5096319;28;20099;-60
2021/12/21 10:39:48;;;;;;;6.65;3.15;;;;;;;;;;5086947;28;20036;-60
2021/12/21 10:42:14;;;;;;;6.97;3.50;;;;;;;;;;5089990;28;20293;-60
2021/12/21 10:44:44;;;;;;;6.15;3.95;;;;;;;;;;5090956;28;20020;-66
2021/12/21 10:47:11;;;;;;;5.47;3.63;;;;;;;;;;5075874;28;20077;-62
2021/12/21 10:49:39;;;;;;;6.50;3.40;;;;;;;;;;5071522;28;20033;-63
2021/12/21 10:52:05;;;;;;;8.80;3.08;;;;;;;;;;5078432;28;20397;-63
2021/12/21 10:54:32;;;;;;;6.53;3.60;;;;;;;;;;5088499;28;20028;-63
2021/12/21 10:56:58;;;;;;;6.20;3.17;;;;;;;;;;5073843;28;20037;-68
2021/12/21 10:59:34;;;;;;;12.65;3.97;;;;;;;;;;5090110;28;20035;-61
2021/12/21 11:02:05;;;;;;;13.15;4.72;;;;;;;;;;5088083;28;20033;-62
2021/12/21 11:04:34;;;;;;;8.40;4.25;;;;;;;;;;5101446;28;20091;-66
2021/12/21 11:07:08;;;;;;;8.50;3.73;;;;;;;;;;5097219;28;20046;-67
2021/12/21 11:09:34;;;;;;;7.82;3.75;;;;;;;;;;5102177;28;20039;-67
2021/12/21 11:12:00;;;;;;;6.57;4.07;;;;;;;;;;5100987;28;20040;-65
2021/12/21 11:14:29;;;;;;;6.85;3.70;;;;;;;;;;5099131;28;20450;-67
2021/12/21 11:16:55;;;;;;;8.15;3.78;;;;;;;;;;5106302;28;20052;-68
2021/12/21 11:19:23;;;;;;;8.18;3.30;;;;;;;;;;5100187;28;20052;-72
2021/12/21 11:21:49;;;;;;;7.75;3.72;;;;;;;;;;5097111;28;20070;-68
2021/12/21 11:24:15;;;;;;;6.60;3.55;;;;;;;;;;5105359;28;20024;-75
2021/12/21 11:26:41;;;;;;;10.77;3.63;;;;;;;;;;5078505;28;20047;-75
2021/12/21 11:29:08;;;;;;;6.78;4.15;;;;;;;;;;5106131;28;20035;-71
2021/12/21 11:31:38;;;;;;;6.22;3.42;;;;;;;;;;5099782;28;20044;-64
2021/12/21 11:34:06;;;;;;;5.88;3.55;;;;;;;;;;5091065;28;20020;-62
2021/12/21 11:39:15;;;;;;;6.97;3.72;;;;;;;;;;5093327;28;20054;-61
2021/12/21 11:41:41;;;;;;;9.68;3.90;;;;;;;;;;5097938;28;20659;-61
2021/12/21 11:44:16;;;;;;;7.68;4.22;;;;;;;;;;5096093;28;20043;-61
2021/12/21 11:46:51;;;;;;;5.30;3.13;;;;;;;;;;5091960;28;20027;-64
2021/12/21 11:49:22;;;;;;;7.30;3.67;;;;;;;;;;5085136;28;20031;-62
2021/12/21 11:51:47;;;;;;;4.72;3.10;;;;;;;;;;5091676;28;20080;-61
2021/12/21 11:54:16;;;;;;;5.60;3.63;;;;;;;;;;5090021;28;20096;-64
2021/12/21 11:56:42;;;;;;;6.30;3.57;;;;;;;;;;5090181;28;20032;-65
2021/12/21 11:59:07;;;;;;;4.53;3.10;;;;;;;;;;5093730;28;20083;-68
2021/12/21 12:01:33;;;;;;;8.55;3.53;;;;;;;;;;5090119;28;20084;-64
2021/12/21 12:04:09;;;;;;;4.60;2.97;;;;;;;;;;5089792;28;20115;-62
2021/12/21 12:06:46;;;;;;;5.28;3.55;;;;;;;;;;5089629;28;20063;-70
2021/12/21 12:09:20;;;;;;;6.38;2.85;;;;;;;;;;5086142;28;20014;-66
2021/12/21 12:11:45;;;;;;;5.80;2.95;;;;;;;;;;5092700;28;20074;-65
2021/12/21 12:14:12;;;;;;;6.40;3.30;;;;;;;;;;5087980;28;20048;-66
2021/12/21 12:16:52;;;;;;;6.25;3.25;;;;;;;;;;5070637;28;20032;-65
2021/12/21 12:19:18;;;;;;;5.85;3.17;;;;;;;;;;5089724;28;20111;-61
2021/12/21 12:22:02;;;;;;;37.60;3.65;;;;;;;;;;5090025;28;20070;-61
2021/12/21 12:24:33;;;;;;;6.47;2.33;;;;;;;;;;5084343;28;20033;-63
2021/12/21 12:27:00;;;;;;;8.45;2.70;;;;;;;;;;5094150;28;20044;-65
2021/12/21 12:29:26;;;;;;;5.13;2.50;;;;;;;;;;5091890;28;20031;-64
2021/12/21 12:31:57;;;;;;;4.80;2.78;;;;;;;;;;5086786;28;20123;-67
2021/12/21 12:34:24;;;;;;;7.57;3.15;;;;;;;;;;5089493;28;20027;-65
2021/12/21 12:36:51;;;;;;;7.97;3.03;;;;;;;;;;5087952;28;20039;-65
2021/12/21 12:39:46;;;;;;;8.13;2.63;;;;;;;;;;5100655;28;20462;-60
2021/12/21 12:42:13;;;;;;;5.75;2.63;;;;;;;;;;5006259;28;20018;-63
2021/12/21 12:44:40;;;;;;;7.45;3.05;;;;;;;;;;5007552;28;20687;-64
2021/12/21 12:47:06;;;;;;;5.68;2.47;;;;;;;;;;5006124;28;20053;-62
2021/12/21 12:49:34;;;;;;;4.53;2.63;;;;;;;;;;5007242;28;20044;-63
2021/12/21 12:52:19;;;;;;;4.38;2.50;;;;;;;;;;5004739;28;20125;-62
2021/12/21 12:54:49;;;;;;;11.45;2.80;;;;;;;;;;5007156;28;20113;-62
2021/12/21 12:57:26;;;;;;;8.23;2.58;;;;;;;;;;5006353;28;20128;-61
2021/12/21 12:59:55;;;;;;;3.95;2.30;;;;;;;;;;5007453;28;20065;-61
2021/12/21 13:02:20;;;;;;;4.10;2.20;;;;;;;;;;5006579;28;20033;-62
2021/12/21 13:04:45;;;;;;;5.45;2.40;;;;;;;;;;5006393;28;20045;-61
2021/12/21 13:07:11;;;;;;;5.72;2.92;;;;;;;;;;5006351;28;20040;-61
2021/12/21 13:09:36;;;;;;;5.82;2.58;;;;;;;;;;5006462;28;20045;-61
2021/12/21 13:12:01;;;;;;;7.05;2.28;;;;;;;;;;5007345;28;20053;-61
2021/12/21 13:14:27;;;;;;;4.93;2.15;;;;;;;;;;5006333;28;20042;-62
2021/12/21 13:16:57;;;;;;;3.15;1.98;;;;;;;;;;5006036;28;20088;-62
2021/12/21 13:19:25;;;;;;;5.65;2.28;;;;;;;;;;5080119;28;20051;-64
2021/12/21 13:21:56;;;;;;;8.32;2.78;;;;;;;;;;5095954;28;20044;-61
2021/12/21 13:24:22;;;;;;;7.72;2.35;;;;;;;;;;5098746;28;20084;-62
2021/12/21 13:26:52;;;;;;;4.90;2.45;;;;;;;;;;5097765;28;20047;-61
2021/12/21 13:29:21;;;;;;;7.22;2.92;;;;;;;;;;5097742;28;20025;-63
2021/12/21 13:31:47;;;;;;;3.83;2.20;;;;;;;;;;5099534;28;20084;-62
2021/12/21 13:34:13;;;;;;;6.28;2.92;;;;;;;;;;5099666;28;20024;-63
2021/12/21 13:36:59;;;;;;;5.53;2.80;;;;;;;;;;5100010;28;20478;-62
2021/12/21 13:39:26;;;;;;;6.75;2.58;;;;;;;;;;5095142;28;20032;-63
2021/12/21 13:41:55;;;;;;;4.65;2.78;;;;;;;;;;5099599;28;20683;-61
2021/12/21 13:44:27;;;;;;;3.67;2.17;;;;;;;;;;5099932;28;20032;-65
2021/12/21 13:46:52;;;;;;;6.03;2.63;;;;;;;;;;5099148;28;20048;-66
2021/12/21 13:49:18;;;;;;;9.75;1.95;;;;;;;;;;5097824;28;20015;-62
2021/12/21 13:51:50;;;;;;;3.58;1.85;;;;;;;;;;5098245;28;20044;-64
2021/12/21 13:54:17;;;;;;;8.45;2.00;;;;;;;;;;5098017;28;20483;-64
2021/12/21 13:56:42;;;;;;;5.38;2.17;;;;;;;;;;5094263;28;20418;-62
2021/12/21 13:59:11;;;;;;;8.32;1.92;;;;;;;;;;5096850;28;20036;-62
2021/12/21 14:01:36;;;;;;;2.50;1.90;;;;;;;;;;5094454;28;20052;-64
2021/12/21 14:04:07;;;;;;;5.85;2.72;;;;;;;;;;5098606;28;20062;-64
2021/12/21 14:06:34;;;;;;;3.78;2.08;;;;;;;;;;5095504;28;20119;-63
2021/12/21 14:09:00;;;;;;;6.65;2.25;;;;;;;;;;5087203;28;20038;-65
2021/12/21 14:11:29;;;;;;;2.92;1.88;;;;;;;;;;5090890;28;20426;-67
2021/12/21 14:13:56;;;;;;;12.73;2.60;;;;;;;;;;5093565;28;20093;-62
2021/12/21 14:16:22;;;;;;;5.80;2.30;;;;;;;;;;5094651;28;20814;-64
2021/12/21 14:18:49;;;;;;;4.22;2.58;;;;;;;;;;5086758;28;20395;-63
2021/12/21 14:21:15;;;;;;;4.32;1.88;;;;;;;;;;5088501;28;20052;-66
2021/12/21 14:23:43;;;;;;;3.63;1.80;;;;;;;;;;5088821;28;20819;-61
2021/12/21 14:26:11;;;;;;;4.65;2.30;;;;;;;;;;5084871;28;20062;-62
2021/12/21 14:28:48;;;;;;;3.08;1.67;;;;;;;;;;5087527;28;20025;-62
2021/12/21 14:31:15;;;;;;;7.63;2.22;;;;;;;;;;5086154;28;20502;-60
2021/12/21 14:33:50;;;;;;;4.50;2.30;;;;;;;;;;5088233;28;20061;-61
2021/12/21 14:36:19;;;;;;;7.38;2.33;;;;;;;;;;5088483;28;20024;-63
2021/12/21 14:38:59;;;;;;;4.15;2.13;;;;;;;;;;5072879;28;20515;-62
2021/12/21 14:41:25;;;;;;;;;;;;;;;;;;5091717;28;20634;-60
2021/12/21 14:44:19;;;;;;;3.83;1.92;;;;;;;;;;5090835;28;19969;-60
2021/12/21 14:46:55;;;;;;;4.88;2.05;;;;;;;;;;5027649;28;20083;-64
2021/12/21 14:49:24;;;;;;;5.85;2.40;;;;;;;;;;5027966;28;20037;-62
2021/12/21 14:51:51;;;;;;;5.93;2.58;;;;;;;;;;5025712;28;20033;-60
2021/12/21 14:54:24;;;;;;;6.50;2.53;;;;;;;;;;5028840;28;20409;-61
2021/12/21 14:56:50;;;;;;;4.25;2.33;;;;;;;;;;5029057;28;20029;-61
2021/12/21 14:59:16;;;;;;;8.82;2.22;;;;;;;;;;5027758;28;20041;-63
2021/12/21 15:01:53;;;;;;;4.93;2.28;;;;;;;;;;5028336;28;20077;-64
2021/12/21 15:04:23;;;;;;;3.30;2.08;;;;;;;;;;5028088;28;20030;-63
2021/12/21 15:06:48;;;;;;;6.13;2.13;;;;;;;;;;5025934;28;20505;-65
2021/12/21 15:09:14;;;;;;;9.07;2.35;;;;;;;;;;5027295;28;20048;-63
2021/12/21 15:11:48;;;;;;;4.00;2.60;;;;;;;;;;5029997;28;20087;-65
2021/12/21 15:14:14;;;;;;;4.22;2.00;;;;;;;;;;5028714;28;20045;-63
2021/12/21 15:16:39;;;;;;;4.18;2.13;;;;;;;;;;5031724;28;20696;-67
2021/12/21 15:19:04;;;;;;;5.05;2.28;;;;;;;;;;5037274;28;20117;-67
2021/12/21 15:21:30;;;;;;;8.23;2.10;;;;;;;;;;5041165;28;20113;-64
2021/12/21 15:24:00;;;;;;;5.22;2.03;;;;;;;;;;5090194;28;20040;-63
2021/12/21 15:26:25;;;;;;;5.90;2.60;;;;;;;;;;5091053;28;20059;-63
2021/12/21 15:28:50;;;;;;;6.47;2.95;;;;;;;;;;5099555;28;20491;-63
2021/12/21 15:31:15;;;;;;;7.97;2.58;;;;;;;;;;5083488;28;20041;-61
2021/12/21 15:33:41;;;;;;;5.70;2.40;;;;;;;;;;5104913;28;20031;-65
2021/12/21 15:36:06;;;;;;;6.80;2.63;;;;;;;;;;5101358;28;20103;-65
2021/12/21 15:38:33;;;;;;;4.15;2.60;;;;;;;;;;5093610;28;20062;-66
2021/12/21 15:40:58;;;;;;;6.45;2.88;;;;;;;;;;5096638;28;20032;-65
2021/12/21 15:43:31;;;;;;;5.50;2.40;;;;;;;;;;5099644;28;20023;-68
2021/12/21 15:45:56;;;;;;;8.05;2.70;;;;;;;;;;5095521;28;20824;-59
2021/12/21 15:48:21;;;;;;;5.85;2.60;;;;;;;;;;5101254;28;20059;-61
2021/12/21 15:50:46;;;;;;;3.75;2.15;;;;;;;;;;5103777;28;20484;-59
2021/12/21 15:53:12;;;;;;;4.80;2.80;;;;;;;;;;5101228;28;20036;-61
2021/12/21 15:55:37;;;;;;;5.53;2.65;;;;;;;;;;5105347;28;20065;-62